createdAt,value
2018-05-25T00:00:06.144Z,0
2018-05-25T00:01:15.040Z,0
2018-05-25T00:02:24.480Z,0
2018-05-25T00:03:34.158Z,0
2018-05-25T00:04:43.577Z,0
2018-05-25T00:05:53.501Z,0
2018-05-25T00:07:02.946Z,0
2018-05-25T00:08:12.631Z,0
2018-05-25T00:09:21.544Z,0
2018-05-25T00:10:31.488Z,0
2018-05-25T00:11:40.648Z,0
2018-05-25T00:12:50.094Z,0
2018-05-25T00:13:58.989Z,0
2018-05-25T00:15:08.421Z,0
2018-05-25T00:16:18.096Z,0
2018-05-25T00:17:27.253Z,0
2018-05-25T00:18:36.659Z,0
2018-05-25T00:19:46.315Z,0
2018-05-25T00:20:56.254Z,0
2018-05-25T00:22:05.439Z,0
2018-05-25T00:23:15.195Z,0
2018-05-25T00:24:24.401Z,0
2018-05-25T00:25:33.828Z,0
2018-05-25T00:26:43.499Z,0
2018-05-25T00:27:52.682Z,0
2018-05-25T00:29:02.381Z,0
2018-05-25T00:30:11.297Z,0
2018-05-25T00:31:20.453Z,0
2018-05-25T00:32:29.624Z,0
2018-05-25T00:33:38.529Z,0
2018-05-25T00:34:48.223Z,0
2018-05-25T00:35:58.200Z,0
2018-05-25T00:37:07.654Z,0
2018-05-25T00:38:17.303Z,0
2018-05-25T00:39:26.277Z,0
2018-05-25T00:40:35.211Z,0
2018-05-25T00:41:44.400Z,0
2018-05-25T00:42:53.828Z,0
2018-05-25T00:44:02.744Z,0
2018-05-25T00:45:12.180Z,0
2018-05-25T00:46:21.342Z,0
2018-05-25T00:47:30.783Z,0
2018-05-25T00:48:40.485Z,0
2018-05-25T00:49:50.191Z,0
2018-05-25T00:50:59.386Z,0
2018-05-25T00:52:09.082Z,0
2018-05-25T00:53:18.249Z,0
2018-05-25T00:54:27.679Z,0
2018-05-25T00:55:36.850Z,0
2018-05-25T00:56:46.286Z,0
2018-05-25T00:57:55.961Z,0
2018-05-25T00:59:05.159Z,0
2018-05-25T01:00:14.609Z,0
2018-05-25T01:01:23.778Z,0
2018-05-25T01:02:33.695Z,0
2018-05-25T01:03:43.189Z,0
2018-05-25T01:04:52.877Z,0
2018-05-25T01:06:02.063Z,0
2018-05-25T01:07:11.262Z,0
2018-05-25T01:08:21.193Z,0
2018-05-25T01:09:30.878Z,0
2018-05-25T01:10:40.571Z,0
2018-05-25T01:11:50.021Z,0
2018-05-25T01:12:59.182Z,0
2018-05-25T01:14:08.587Z,0
2018-05-25T01:15:18.022Z,0
2018-05-25T01:16:27.199Z,0
2018-05-25T01:17:36.112Z,0
2018-05-25T01:18:45.275Z,0
2018-05-25T01:19:54.765Z,0
2018-05-25T01:21:03.952Z,0
2018-05-25T01:22:13.426Z,0
2018-05-25T01:23:22.591Z,0
2018-05-25T01:24:32.039Z,0
2018-05-25T01:25:41.758Z,0
2018-05-25T01:26:51.168Z,0
2018-05-25T01:28:00.330Z,0
2018-05-25T01:29:09.512Z,0
2018-05-25T01:30:18.936Z,0
2018-05-25T01:31:28.369Z,0
2018-05-25T01:32:38.061Z,0
2018-05-25T01:33:47.528Z,0
2018-05-25T01:34:56.994Z,0
2018-05-25T01:36:06.691Z,0
2018-05-25T01:37:15.855Z,0
2018-05-25T01:38:25.300Z,0
2018-05-25T01:39:34.739Z,0
2018-05-25T01:40:44.727Z,0
2018-05-25T01:41:53.893Z,0
2018-05-25T01:43:03.583Z,0
2018-05-25T01:44:13.245Z,0
2018-05-25T01:45:22.668Z,0
2018-05-25T01:46:32.113Z,0
2018-05-25T01:47:41.788Z,0
2018-05-25T01:48:51.208Z,0
2018-05-25T01:50:00.877Z,0
2018-05-25T01:51:10.349Z,0
2018-05-25T01:52:19.535Z,0
2018-05-25T01:53:29.211Z,0
2018-05-25T01:54:38.882Z,0
2018-05-25T01:55:48.563Z,0
2018-05-25T01:56:57.469Z,0
2018-05-25T01:58:07.146Z,0
2018-05-25T01:59:16.310Z,0
2018-05-25T02:00:24.980Z,0
2018-05-25T02:01:34.431Z,0
2018-05-25T02:02:44.121Z,0
2018-05-25T02:03:53.305Z,0
2018-05-25T02:05:02.241Z,0
2018-05-25T02:06:11.402Z,0
2018-05-25T02:07:20.588Z,0
2018-05-25T02:08:30.015Z,0
2018-05-25T02:09:39.704Z,0
2018-05-25T02:10:48.895Z,0
2018-05-25T02:11:58.319Z,0
2018-05-25T02:13:08.058Z,0
2018-05-25T02:14:17.518Z,0
2018-05-25T02:15:26.668Z,0
2018-05-25T02:16:36.646Z,0
2018-05-25T02:17:45.850Z,0
2018-05-25T02:18:55.274Z,0
2018-05-25T02:20:04.456Z,0
2018-05-25T02:21:13.125Z,0
2018-05-25T02:22:22.815Z,0
2018-05-25T02:23:32.045Z,0
2018-05-25T02:24:41.224Z,0
2018-05-25T02:25:50.917Z,0
2018-05-25T02:27:00.366Z,0
2018-05-25T02:28:09.529Z,0
2018-05-25T02:29:18.954Z,0
2018-05-25T02:30:28.668Z,0
2018-05-25T02:31:38.368Z,0
2018-05-25T02:32:47.809Z,0
2018-05-25T02:33:57.497Z,0
2018-05-25T02:35:06.399Z,0
2018-05-25T02:36:16.357Z,0
2018-05-25T02:37:25.614Z,0
2018-05-25T02:38:35.098Z,0
2018-05-25T02:39:45.611Z,0
2018-05-25T02:40:54.867Z,0
2018-05-25T02:42:04.296Z,0
2018-05-25T02:43:13.473Z,0
2018-05-25T02:44:22.920Z,0
2018-05-25T02:45:32.636Z,0
2018-05-25T02:46:41.824Z,0
2018-05-25T02:47:51.245Z,0
2018-05-25T02:49:00.674Z,0
2018-05-25T02:50:09.876Z,0
2018-05-25T02:51:19.563Z,0
2018-05-25T02:52:28.767Z,0
2018-05-25T02:53:38.173Z,0
2018-05-25T02:54:47.071Z,0
2018-05-25T02:55:56.262Z,0
2018-05-25T02:57:05.484Z,0
2018-05-25T02:58:14.904Z,0
2018-05-25T02:59:24.309Z,0
2018-05-25T03:00:34.248Z,0
2018-05-25T03:01:43.417Z,0
2018-05-25T03:02:53.145Z,0
2018-05-25T03:04:02.843Z,0
2018-05-25T03:05:12.538Z,0
2018-05-25T03:06:22.248Z,0
2018-05-25T03:07:31.944Z,0
2018-05-25T03:08:41.363Z,0
2018-05-25T03:09:51.308Z,0
2018-05-25T03:11:01.030Z,0
2018-05-25T03:12:10.040Z,0
2018-05-25T03:13:19.781Z,0
2018-05-25T03:14:28.922Z,0
2018-05-25T03:15:38.600Z,0
2018-05-25T03:16:47.513Z,0
2018-05-25T03:17:57.246Z,0
2018-05-25T03:19:06.409Z,0
2018-05-25T03:20:15.851Z,0
2018-05-25T03:21:25.530Z,0
2018-05-25T03:22:35.216Z,0
2018-05-25T03:23:44.647Z,0
2018-05-25T03:24:54.052Z,0
2018-05-25T03:26:03.232Z,0
2018-05-25T03:27:12.669Z,0
2018-05-25T03:28:22.128Z,0
2018-05-25T03:29:31.294Z,0
2018-05-25T03:30:40.212Z,0
2018-05-25T03:31:49.413Z,0
2018-05-25T03:32:58.829Z,0
2018-05-25T03:34:08.521Z,0
2018-05-25T03:35:18.257Z,0
2018-05-25T03:36:27.944Z,0
2018-05-25T03:37:37.109Z,0
2018-05-25T03:38:46.535Z,0
2018-05-25T03:39:55.693Z,0
2018-05-25T03:41:05.367Z,0
2018-05-25T03:42:14.796Z,0
2018-05-25T03:43:24.220Z,0
2018-05-25T03:44:33.424Z,0
2018-05-25T03:45:43.101Z,0
2018-05-25T03:46:52.266Z,0
2018-05-25T03:48:01.947Z,0
2018-05-25T03:49:11.092Z,0
2018-05-25T03:50:20.280Z,0
2018-05-25T03:51:29.959Z,0
2018-05-25T03:52:38.611Z,0
2018-05-25T03:53:48.308Z,0
2018-05-25T03:54:57.733Z,0
2018-05-25T03:56:07.440Z,0
2018-05-25T03:57:16.617Z,0
2018-05-25T03:58:26.302Z,0
2018-05-25T03:59:35.460Z,0
2018-05-25T04:00:44.380Z,0
2018-05-25T04:01:53.819Z,0
2018-05-25T04:03:03.497Z,0
2018-05-25T04:04:12.918Z,0
2018-05-25T04:05:22.074Z,0
2018-05-25T04:06:31.526Z,0
2018-05-25T04:07:40.692Z,0
2018-05-25T04:08:50.627Z,0
2018-05-25T04:10:00.581Z,0
2018-05-25T04:11:10.528Z,0
2018-05-25T04:12:19.694Z,0
2018-05-25T04:13:29.123Z,0
2018-05-25T04:14:38.028Z,0
2018-05-25T04:15:47.727Z,0
2018-05-25T04:16:56.900Z,0
2018-05-25T04:18:06.335Z,0
2018-05-25T04:19:15.503Z,0
2018-05-25T04:20:24.934Z,0
2018-05-25T04:21:34.089Z,0
2018-05-25T04:22:43.781Z,4
2018-05-25T04:23:53.463Z,4
2018-05-25T04:25:02.618Z,4
2018-05-25T04:26:12.313Z,4
2018-05-25T04:27:21.740Z,4
2018-05-25T04:28:31.150Z,4
2018-05-25T04:29:40.333Z,4
2018-05-25T04:30:50.050Z,4
2018-05-25T04:31:59.457Z,4
2018-05-25T04:33:09.168Z,4
2018-05-25T04:34:18.581Z,4
2018-05-25T04:35:28.008Z,0
2018-05-25T04:36:37.705Z,0
2018-05-25T04:37:47.125Z,0
2018-05-25T04:38:56.797Z,0
2018-05-25T04:40:06.272Z,0
2018-05-25T04:41:15.435Z,4
2018-05-25T04:42:25.100Z,4
2018-05-25T04:43:34.015Z,4
2018-05-25T04:44:43.170Z,4
2018-05-25T04:45:52.585Z,4
2018-05-25T04:47:02.007Z,4
2018-05-25T04:48:11.701Z,4
2018-05-25T04:49:21.362Z,4
2018-05-25T04:50:30.518Z,0
2018-05-25T04:51:39.959Z,4
2018-05-25T04:52:49.629Z,4
2018-05-25T04:53:58.790Z,4
2018-05-25T04:55:08.485Z,4
2018-05-25T04:56:18.180Z,4
2018-05-25T04:57:27.613Z,4
2018-05-25T04:58:37.051Z,4
2018-05-25T04:59:45.956Z,4
2018-05-25T05:00:55.111Z,4
2018-05-25T05:02:05.032Z,4
2018-05-25T05:03:14.475Z,4
2018-05-25T05:04:23.898Z,4
2018-05-25T05:05:33.844Z,4
2018-05-25T05:06:43.263Z,4
2018-05-25T05:07:52.416Z,4
2018-05-25T05:09:01.832Z,4
2018-05-25T05:10:11.295Z,4
2018-05-25T05:11:21.051Z,4
2018-05-25T05:12:30.208Z,4
2018-05-25T05:13:39.394Z,4
2018-05-25T05:14:49.516Z,4
2018-05-25T05:15:59.092Z,4
2018-05-25T05:17:08.293Z,4
2018-05-25T05:18:18.236Z,4
2018-05-25T05:19:26.925Z,4
2018-05-25T05:20:36.102Z,4
2018-05-25T05:21:45.547Z,4
2018-05-25T05:22:55.274Z,4
2018-05-25T05:24:04.468Z,8
2018-05-25T05:25:13.367Z,4
2018-05-25T05:26:22.789Z,4
2018-05-25T05:27:32.631Z,4
2018-05-25T05:28:41.789Z,4
2018-05-25T05:29:50.953Z,8
2018-05-25T05:31:00.632Z,8
2018-05-25T05:32:10.572Z,8
2018-05-25T05:33:20.266Z,8
2018-05-25T05:34:28.929Z,8
2018-05-25T05:35:37.847Z,8
2018-05-25T05:36:47.290Z,8
2018-05-25T05:37:56.206Z,8
2018-05-25T05:39:05.638Z,8
2018-05-25T05:40:15.577Z,8
2018-05-25T05:41:25.258Z,12
2018-05-25T05:42:34.926Z,12
2018-05-25T05:43:44.622Z,8
2018-05-25T05:44:53.793Z,8
2018-05-25T05:46:03.250Z,8
2018-05-25T05:47:12.392Z,8
2018-05-25T05:48:21.295Z,12
2018-05-25T05:49:30.480Z,8
2018-05-25T05:50:40.201Z,16
2018-05-25T05:51:49.873Z,16
2018-05-25T05:52:59.295Z,12
2018-05-25T05:54:08.725Z,12
2018-05-25T05:55:18.422Z,12
2018-05-25T05:56:27.345Z,12
2018-05-25T05:57:36.806Z,12
2018-05-25T05:58:46.223Z,16
2018-05-25T05:59:55.652Z,16
2018-05-25T06:01:04.566Z,16
2018-05-25T06:02:14.262Z,16
2018-05-25T06:03:23.422Z,16
2018-05-25T06:04:33.028Z,12
2018-05-25T06:05:41.975Z,16
2018-05-25T06:06:51.654Z,20
2018-05-25T06:08:01.083Z,20
2018-05-25T06:09:10.519Z,20
2018-05-25T06:10:19.963Z,20
2018-05-25T06:11:28.605Z,16
2018-05-25T06:12:37.769Z,20
2018-05-25T06:13:47.225Z,24
2018-05-25T06:14:56.897Z,16
2018-05-25T06:16:06.389Z,20
2018-05-25T06:17:15.817Z,24
2018-05-25T06:18:24.767Z,4
2018-05-25T06:19:33.661Z,4
2018-05-25T06:20:43.077Z,8
2018-05-25T06:21:53.008Z,4
2018-05-25T06:23:02.235Z,4
2018-05-25T06:24:11.999Z,4
2018-05-25T06:25:22.003Z,4
2018-05-25T06:26:31.218Z,8
2018-05-25T06:27:40.126Z,4
2018-05-25T06:28:49.843Z,8
2018-05-25T06:29:59.781Z,8
2018-05-25T06:31:09.252Z,8
2018-05-25T06:32:18.677Z,4
2018-05-25T06:33:27.648Z,8
2018-05-25T06:34:36.580Z,8
2018-05-25T06:35:46.272Z,8
2018-05-25T06:36:55.448Z,8
2018-05-25T06:38:04.608Z,8
2018-05-25T06:39:14.276Z,8
2018-05-25T06:40:23.986Z,8
2018-05-25T06:41:33.437Z,8
2018-05-25T06:42:42.847Z,8
2018-05-25T06:43:55.316Z,8
2018-05-25T06:45:05.748Z,8
2018-05-25T06:46:15.447Z,8
2018-05-25T06:47:24.628Z,8
2018-05-25T06:48:33.277Z,8
2018-05-25T06:49:42.693Z,8
2018-05-25T06:50:52.429Z,12
2018-05-25T06:52:01.593Z,12
2018-05-25T06:53:11.270Z,8
2018-05-25T06:54:20.969Z,8
2018-05-25T06:55:30.697Z,12
2018-05-25T06:56:40.384Z,12
2018-05-25T06:57:49.597Z,12
2018-05-25T06:58:58.824Z,12
2018-05-25T07:00:08.249Z,12
2018-05-25T07:01:17.456Z,12
2018-05-25T07:02:27.158Z,12
2018-05-25T07:03:36.329Z,12
2018-05-25T07:04:45.779Z,12
2018-05-25T07:05:54.722Z,8
2018-05-25T07:07:03.926Z,8
2018-05-25T07:08:13.095Z,12
2018-05-25T07:09:22.791Z,8
2018-05-25T07:10:31.993Z,12
2018-05-25T07:11:41.157Z,12
2018-05-25T07:12:50.603Z,8
2018-05-25T07:14:00.304Z,12
2018-05-25T07:15:09.595Z,8
2018-05-25T07:16:19.049Z,8
2018-05-25T07:17:28.504Z,12
2018-05-25T07:18:37.909Z,12
2018-05-25T07:19:47.625Z,8
2018-05-25T07:20:57.051Z,8
2018-05-25T07:22:06.283Z,12
2018-05-25T07:23:15.479Z,8
2018-05-25T07:24:25.147Z,12
2018-05-25T07:25:34.332Z,8
2018-05-25T07:26:43.508Z,12
2018-05-25T07:27:52.657Z,12
2018-05-25T07:29:02.361Z,12
2018-05-25T07:30:11.538Z,12
2018-05-25T07:31:20.983Z,12
2018-05-25T07:32:30.428Z,12
2018-05-25T07:33:39.874Z,12
2018-05-25T07:34:49.302Z,12
2018-05-25T07:35:58.469Z,12
2018-05-25T07:37:07.926Z,12
2018-05-25T07:38:17.607Z,12
2018-05-25T07:39:27.223Z,12
2018-05-25T07:40:36.649Z,16
2018-05-25T07:41:46.070Z,16
2018-05-25T07:42:55.028Z,12
2018-05-25T07:44:04.725Z,16
2018-05-25T07:45:14.476Z,12
2018-05-25T07:46:24.215Z,12
2018-05-25T07:47:33.383Z,12
2018-05-25T07:48:42.561Z,12
2018-05-25T07:49:51.983Z,8
2018-05-25T07:51:01.697Z,12
2018-05-25T07:52:10.619Z,12
2018-05-25T07:53:20.046Z,16
2018-05-25T07:54:29.969Z,12
2018-05-25T07:55:39.166Z,16
2018-05-25T07:56:48.597Z,12
2018-05-25T07:57:58.121Z,12
2018-05-25T07:59:07.327Z,12
2018-05-25T08:00:17.295Z,16
2018-05-25T08:01:26.506Z,12
2018-05-25T08:02:35.690Z,12
2018-05-25T08:03:45.121Z,12
2018-05-25T08:04:54.541Z,12
2018-05-25T08:06:03.722Z,8
2018-05-25T08:07:12.889Z,16
2018-05-25T08:08:22.562Z,8
2018-05-25T08:09:31.759Z,8
2018-05-25T08:10:41.214Z,12
2018-05-25T08:11:50.682Z,12
2018-05-25T08:12:59.863Z,16
2018-05-25T08:14:09.312Z,12
2018-05-25T08:15:19.035Z,16
2018-05-25T08:16:28.744Z,12
2018-05-25T08:17:37.910Z,12
2018-05-25T08:18:47.331Z,12
2018-05-25T08:19:56.532Z,16
2018-05-25T08:21:06.247Z,16
2018-05-25T08:22:15.941Z,12
2018-05-25T08:23:25.630Z,12
2018-05-25T08:24:35.065Z,12
2018-05-25T08:25:44.835Z,16
2018-05-25T08:26:54.269Z,16
2018-05-25T08:28:04.229Z,16
2018-05-25T08:29:13.961Z,16
2018-05-25T08:30:23.930Z,16
2018-05-25T08:31:32.762Z,20
2018-05-25T08:32:42.238Z,16
2018-05-25T08:33:51.738Z,16
2018-05-25T08:35:01.183Z,16
2018-05-25T08:36:10.612Z,16
2018-05-25T08:37:19.817Z,16
2018-05-25T08:38:28.996Z,16
2018-05-25T08:39:38.178Z,20
2018-05-25T08:40:47.359Z,16
2018-05-25T08:41:57.070Z,16
2018-05-25T08:43:06.505Z,16
2018-05-25T08:44:16.438Z,16
2018-05-25T08:45:25.605Z,16
2018-05-25T08:46:35.295Z,12
2018-05-25T08:47:44.992Z,12
2018-05-25T08:48:54.442Z,16
2018-05-25T08:50:03.619Z,12
2018-05-25T08:51:13.067Z,16
2018-05-25T08:52:22.507Z,16
2018-05-25T08:53:31.933Z,16
2018-05-25T08:54:41.100Z,20
2018-05-25T08:55:50.272Z,20
2018-05-25T08:56:59.460Z,16
2018-05-25T08:58:08.624Z,12
2018-05-25T08:59:18.406Z,16
2018-05-25T09:00:28.137Z,16
2018-05-25T09:01:37.579Z,16
2018-05-25T09:02:47.263Z,16
2018-05-25T09:03:57.201Z,16
2018-05-25T09:05:06.890Z,16
2018-05-25T09:06:16.326Z,20
2018-05-25T09:07:26.069Z,16
2018-05-25T09:08:35.222Z,12
2018-05-25T09:09:44.395Z,16
2018-05-25T09:10:54.087Z,16
2018-05-25T09:12:03.762Z,16
2018-05-25T09:13:12.682Z,16
2018-05-25T09:14:22.370Z,16
2018-05-25T09:15:31.827Z,16
2018-05-25T09:16:40.734Z,16
2018-05-25T09:17:50.533Z,16
2018-05-25T09:18:59.725Z,16
2018-05-25T09:20:28.111Z,16
2018-05-25T09:21:38.305Z,16
2018-05-25T09:22:47.483Z,20
2018-05-25T09:23:56.920Z,16
2018-05-25T09:25:06.341Z,16
2018-05-25T09:26:15.815Z,16
2018-05-25T09:27:25.490Z,16
2018-05-25T09:28:35.208Z,16
2018-05-25T09:29:43.875Z,16
2018-05-25T09:30:53.462Z,16
2018-05-25T09:32:03.247Z,12
2018-05-25T09:33:13.205Z,16
2018-05-25T09:34:22.630Z,20
2018-05-25T09:35:32.062Z,16
2018-05-25T09:36:41.772Z,8
2018-05-25T09:37:50.707Z,8
2018-05-25T09:38:59.886Z,16
2018-05-25T09:40:09.852Z,16
2018-05-25T09:41:19.524Z,4
2018-05-25T09:42:28.932Z,20
2018-05-25T09:43:38.462Z,8
2018-05-25T09:44:47.377Z,20
2018-05-25T09:45:56.539Z,20
2018-05-25T09:47:05.712Z,16
2018-05-25T09:48:15.436Z,20
2018-05-25T09:49:24.900Z,20
2018-05-25T09:50:34.328Z,20
2018-05-25T09:51:43.499Z,20
2018-05-25T09:52:53.211Z,20
2018-05-25T09:54:02.508Z,20
2018-05-25T09:55:11.401Z,16
2018-05-25T09:56:20.896Z,20
2018-05-25T09:57:30.086Z,20
2018-05-25T09:58:40.041Z,20
2018-05-25T09:59:49.732Z,20
2018-05-25T10:00:59.472Z,20
2018-05-25T10:02:08.908Z,16
2018-05-25T10:03:18.834Z,16
2018-05-25T10:04:28.548Z,20
2018-05-25T10:05:37.468Z,20
2018-05-25T10:06:46.687Z,20
2018-05-25T10:07:55.627Z,20
2018-05-25T10:09:04.845Z,20
2018-05-25T10:10:14.269Z,20
2018-05-25T10:11:23.990Z,16
2018-05-25T10:12:33.419Z,16
2018-05-25T10:13:42.078Z,16
2018-05-25T10:14:51.246Z,16
2018-05-25T10:16:00.921Z,20
2018-05-25T10:17:10.338Z,20
2018-05-25T10:18:20.019Z,16
2018-05-25T10:19:29.193Z,20
2018-05-25T10:20:38.879Z,16
2018-05-25T10:21:47.536Z,20
2018-05-25T10:22:56.993Z,16
2018-05-25T10:24:06.692Z,20
2018-05-25T10:25:15.854Z,16
2018-05-25T10:26:24.803Z,16
2018-05-25T10:27:33.959Z,16
2018-05-25T10:28:43.426Z,16
2018-05-25T10:29:53.138Z,16
2018-05-25T10:31:02.625Z,16
2018-05-25T10:32:12.568Z,16
2018-05-25T10:33:22.003Z,16
2018-05-25T10:34:31.455Z,20
2018-05-25T10:35:40.620Z,20
2018-05-25T10:36:49.534Z,20
2018-05-25T10:37:58.695Z,20
2018-05-25T10:39:07.844Z,20
2018-05-25T10:40:17.025Z,16
2018-05-25T10:41:26.483Z,20
2018-05-25T10:42:35.647Z,16
2018-05-25T10:43:45.097Z,16
2018-05-25T10:44:54.537Z,16
2018-05-25T10:46:03.696Z,16
2018-05-25T10:47:12.875Z,20
2018-05-25T10:48:21.864Z,16
2018-05-25T10:49:30.764Z,20
2018-05-25T10:50:39.962Z,16
2018-05-25T10:51:49.700Z,16
2018-05-25T10:52:58.619Z,16
2018-05-25T10:54:07.806Z,16
2018-05-25T10:55:17.505Z,16
2018-05-25T10:56:26.662Z,20
2018-05-25T10:57:36.165Z,16
2018-05-25T10:58:45.619Z,8
2018-05-25T10:59:55.126Z,16
2018-05-25T11:01:04.573Z,16
2018-05-25T11:02:14.271Z,16
2018-05-25T11:03:23.431Z,16
2018-05-25T11:04:32.613Z,8
2018-05-25T11:05:42.079Z,12
2018-05-25T11:06:51.526Z,16
2018-05-25T11:08:00.693Z,16
2018-05-25T11:09:10.147Z,16
2018-05-25T11:10:19.571Z,16
2018-05-25T11:11:28.743Z,16
2018-05-25T11:12:37.665Z,12
2018-05-25T11:13:47.080Z,8
2018-05-25T11:14:56.240Z,8
2018-05-25T11:16:05.642Z,8
2018-05-25T11:17:15.070Z,8
2018-05-25T11:18:23.970Z,8
2018-05-25T11:19:33.131Z,12
2018-05-25T11:20:42.874Z,8
2018-05-25T11:21:52.084Z,16
2018-05-25T11:23:01.796Z,16
2018-05-25T11:24:11.240Z,20
2018-05-25T11:25:20.402Z,16
2018-05-25T11:26:29.831Z,20
2018-05-25T11:27:38.987Z,16
2018-05-25T11:28:48.471Z,16
2018-05-25T11:29:57.910Z,16
2018-05-25T11:31:07.639Z,8
2018-05-25T11:32:17.333Z,12
2018-05-25T11:33:27.258Z,8
2018-05-25T11:34:36.685Z,8
2018-05-25T11:35:45.850Z,8
2018-05-25T11:36:54.778Z,12
2018-05-25T11:38:03.730Z,12
2018-05-25T11:39:13.163Z,16
2018-05-25T11:40:23.576Z,16
2018-05-25T11:41:33.022Z,16
2018-05-25T11:42:42.464Z,16
2018-05-25T11:43:52.180Z,16
2018-05-25T11:45:01.364Z,16
2018-05-25T11:46:11.287Z,16
2018-05-25T11:47:20.712Z,16
2018-05-25T11:48:30.670Z,16
2018-05-25T11:49:40.120Z,16
2018-05-25T11:50:49.040Z,12
2018-05-25T11:51:58.482Z,16
2018-05-25T11:53:07.806Z,16
2018-05-25T11:54:16.989Z,16
2018-05-25T11:55:26.685Z,16
2018-05-25T11:56:36.396Z,12
2018-05-25T11:57:45.580Z,16
2018-05-25T11:58:55.008Z,20
2018-05-25T12:00:04.436Z,16
2018-05-25T12:01:14.433Z,16
2018-05-25T12:02:23.349Z,16
2018-05-25T12:03:32.517Z,16
2018-05-25T12:04:41.963Z,16
2018-05-25T12:05:50.882Z,20
2018-05-25T12:07:00.042Z,16
2018-05-25T12:08:09.753Z,16
2018-05-25T12:09:19.209Z,16
2018-05-25T12:10:28.639Z,16
2018-05-25T12:11:38.118Z,16
2018-05-25T12:12:47.320Z,16
2018-05-25T12:13:56.230Z,16
2018-05-25T12:15:05.676Z,16
2018-05-25T12:16:15.387Z,16
2018-05-25T12:17:25.094Z,16
2018-05-25T12:18:34.276Z,16
2018-05-25T12:19:44.007Z,16
2018-05-25T12:20:53.176Z,12
2018-05-25T12:22:02.663Z,12
2018-05-25T12:23:12.111Z,16
2018-05-25T12:24:21.541Z,8
2018-05-25T12:25:31.216Z,16
2018-05-25T12:26:40.402Z,20
2018-05-25T12:27:49.822Z,20
2018-05-25T12:28:59.553Z,20
2018-05-25T12:30:08.739Z,24
2018-05-25T12:31:18.188Z,20
2018-05-25T12:32:27.384Z,20
2018-05-25T12:33:36.579Z,20
2018-05-25T12:34:46.041Z,20
2018-05-25T12:35:55.511Z,20
2018-05-25T12:37:05.044Z,20
2018-05-25T12:38:14.738Z,20
2018-05-25T12:39:24.463Z,24
2018-05-25T12:40:34.640Z,24
2018-05-25T12:41:44.114Z,20
2018-05-25T12:42:53.554Z,20
2018-05-25T12:44:03.530Z,24
2018-05-25T12:45:12.971Z,28
2018-05-25T12:46:21.891Z,24
2018-05-25T12:47:30.794Z,24
2018-05-25T12:48:40.732Z,28
2018-05-25T12:49:50.668Z,16
2018-05-25T12:50:59.874Z,12
2018-05-25T12:52:09.068Z,12
2018-05-25T12:53:18.256Z,12
2018-05-25T12:54:27.758Z,12
2018-05-25T12:55:37.177Z,12
2018-05-25T12:56:46.688Z,24
2018-05-25T12:57:55.950Z,12
2018-05-25T12:59:05.891Z,12
2018-05-25T13:00:15.424Z,24
2018-05-25T13:01:24.870Z,24
2018-05-25T13:02:33.795Z,16
2018-05-25T13:03:42.702Z,12
2018-05-25T13:04:52.397Z,8
2018-05-25T13:06:02.111Z,8
2018-05-25T13:07:12.048Z,8
2018-05-25T13:08:21.473Z,8
2018-05-25T13:09:31.167Z,28
2018-05-25T13:10:40.093Z,32
2018-05-25T13:11:49.535Z,28
2018-05-25T13:12:58.978Z,32
2018-05-25T13:14:08.448Z,28
2018-05-25T13:15:18.127Z,32
2018-05-25T13:16:27.819Z,32
2018-05-25T13:17:37.238Z,32
2018-05-25T13:18:46.918Z,28
2018-05-25T13:19:55.849Z,16
2018-05-25T13:21:05.267Z,12
2018-05-25T13:22:14.705Z,12
2018-05-25T13:23:24.124Z,12
2018-05-25T13:24:33.814Z,12
2018-05-25T13:25:42.732Z,24
2018-05-25T13:26:51.891Z,36
2018-05-25T13:28:01.844Z,32
2018-05-25T13:29:10.484Z,32
2018-05-25T13:30:19.895Z,32
2018-05-25T13:31:29.580Z,36
2018-05-25T13:32:38.988Z,36
2018-05-25T13:33:48.679Z,36
2018-05-25T13:34:57.846Z,36
2018-05-25T13:36:07.536Z,36
2018-05-25T13:37:16.701Z,36
2018-05-25T13:38:25.903Z,36
2018-05-25T13:39:35.596Z,36
2018-05-25T13:40:45.005Z,20
2018-05-25T13:41:54.680Z,20
2018-05-25T13:43:04.100Z,24
2018-05-25T13:44:13.780Z,12
2018-05-25T13:45:23.209Z,32
2018-05-25T13:46:32.888Z,36
2018-05-25T13:47:41.796Z,40
2018-05-25T13:48:50.692Z,36
2018-05-25T13:49:59.846Z,40
2018-05-25T13:51:09.260Z,40
2018-05-25T13:52:18.416Z,44
2018-05-25T13:53:28.356Z,44
2018-05-25T13:54:38.041Z,44
2018-05-25T13:55:47.463Z,44
2018-05-25T13:56:57.138Z,44
2018-05-25T13:58:06.826Z,44
2018-05-25T13:59:16.493Z,44
2018-05-25T14:00:25.653Z,48
2018-05-25T14:01:35.060Z,44
2018-05-25T14:02:44.237Z,8
2018-05-25T14:03:54.175Z,4
2018-05-25T14:05:03.620Z,4
2018-05-25T14:06:12.528Z,8
2018-05-25T14:07:21.946Z,4
2018-05-25T14:08:31.112Z,8
2018-05-25T14:09:40.557Z,8
2018-05-25T14:10:50.244Z,8
2018-05-25T14:11:59.690Z,8
2018-05-25T14:13:09.124Z,4
2018-05-25T14:14:18.818Z,4
2018-05-25T14:15:28.021Z,4
2018-05-25T14:16:37.443Z,4
2018-05-25T14:17:47.135Z,4
2018-05-25T14:18:57.073Z,4
2018-05-25T14:20:07.016Z,4
2018-05-25T14:21:16.471Z,4
2018-05-25T14:22:25.907Z,4
2018-05-25T14:23:35.594Z,8
2018-05-25T14:24:45.340Z,8
2018-05-25T14:25:54.793Z,8
2018-05-25T14:27:04.729Z,4
2018-05-25T14:28:14.449Z,8
2018-05-25T14:29:24.155Z,12
2018-05-25T14:30:33.319Z,20
2018-05-25T14:31:43.113Z,8
2018-05-25T14:32:52.539Z,8
2018-05-25T14:34:01.703Z,12
2018-05-25T14:35:11.852Z,28
2018-05-25T14:36:21.081Z,4
2018-05-25T14:37:30.513Z,8
2018-05-25T14:38:39.463Z,12
2018-05-25T14:39:48.612Z,28
2018-05-25T14:40:57.569Z,28
2018-05-25T14:42:07.018Z,4
2018-05-25T14:43:16.463Z,16
2018-05-25T14:44:25.890Z,28
2018-05-25T14:45:35.315Z,24
2018-05-25T14:46:45.043Z,8
2018-05-25T14:47:54.483Z,4
2018-05-25T14:49:03.915Z,4
2018-05-25T14:50:13.364Z,4
2018-05-25T14:51:22.549Z,8
2018-05-25T14:52:31.786Z,8
2018-05-25T14:53:40.965Z,8
2018-05-25T14:54:50.639Z,16
2018-05-25T14:56:00.333Z,8
2018-05-25T14:57:10.006Z,4
2018-05-25T14:58:19.433Z,8
2018-05-25T14:59:28.912Z,8
2018-05-25T15:00:38.355Z,8
2018-05-25T15:01:48.080Z,8
2018-05-25T15:02:57.010Z,4
2018-05-25T15:04:05.906Z,8
2018-05-25T15:05:14.822Z,4
2018-05-25T15:06:24.007Z,4
2018-05-25T15:07:32.940Z,8
2018-05-25T15:08:42.400Z,8
2018-05-25T15:09:51.975Z,8
2018-05-25T15:11:01.152Z,4
2018-05-25T15:12:10.581Z,4
2018-05-25T15:13:20.268Z,4
2018-05-25T15:14:29.428Z,4
2018-05-25T15:15:38.603Z,4
2018-05-25T15:16:48.026Z,4
2018-05-25T15:17:56.941Z,4
2018-05-25T15:19:06.366Z,4
2018-05-25T15:20:15.530Z,4
2018-05-25T15:21:24.807Z,4
2018-05-25T15:22:34.013Z,4
2018-05-25T15:23:43.945Z,4
2018-05-25T15:24:53.428Z,4
2018-05-25T15:26:02.569Z,8
2018-05-25T15:27:11.995Z,8
2018-05-25T15:28:21.159Z,4
2018-05-25T15:29:30.975Z,8
2018-05-25T15:30:40.186Z,4
2018-05-25T15:31:49.775Z,4
2018-05-25T15:32:59.530Z,8
2018-05-25T15:34:08.444Z,4
2018-05-25T15:35:17.333Z,4
2018-05-25T15:36:26.756Z,4
2018-05-25T15:37:36.201Z,4
2018-05-25T15:38:45.379Z,4
2018-05-25T15:39:54.536Z,4
2018-05-25T15:41:04.010Z,4
2018-05-25T15:42:13.943Z,8
2018-05-25T15:43:23.392Z,8
2018-05-25T15:44:32.552Z,8
2018-05-25T15:45:41.717Z,8
2018-05-25T15:46:51.397Z,8
2018-05-25T15:48:00.590Z,8
2018-05-25T15:49:09.760Z,8
2018-05-25T15:50:19.442Z,8
2018-05-25T15:51:28.639Z,4
2018-05-25T15:52:38.070Z,4
2018-05-25T15:53:47.566Z,4
2018-05-25T15:54:56.735Z,4
2018-05-25T15:56:06.428Z,4
2018-05-25T15:57:16.378Z,4
2018-05-25T15:58:25.800Z,4
2018-05-25T15:59:34.987Z,8
2018-05-25T16:00:43.903Z,4
2018-05-25T16:01:53.587Z,4
2018-05-25T16:03:03.029Z,4
2018-05-25T16:04:12.482Z,4
2018-05-25T16:05:22.160Z,4
2018-05-25T16:06:31.834Z,4
2018-05-25T16:07:41.533Z,4
2018-05-25T16:08:50.825Z,4
2018-05-25T16:09:59.994Z,4
2018-05-25T16:11:09.428Z,4
2018-05-25T16:12:19.131Z,4
2018-05-25T16:13:29.073Z,4
2018-05-25T16:14:38.510Z,8
2018-05-25T16:15:47.674Z,8
2018-05-25T16:16:56.840Z,4
2018-05-25T16:18:06.527Z,4
2018-05-25T16:19:16.213Z,4
2018-05-25T16:20:25.131Z,8
2018-05-25T16:21:34.291Z,4
2018-05-25T16:22:44.255Z,4
2018-05-25T16:23:53.414Z,4
2018-05-25T16:25:02.844Z,4
2018-05-25T16:26:12.029Z,0
2018-05-25T16:27:21.794Z,0
2018-05-25T16:28:31.227Z,0
2018-05-25T16:29:39.876Z,4
2018-05-25T16:30:49.607Z,4
2018-05-25T16:31:59.100Z,0
2018-05-25T16:33:08.773Z,4
2018-05-25T16:34:18.263Z,4
2018-05-25T16:35:27.692Z,4
2018-05-25T16:36:36.864Z,4
2018-05-25T16:37:45.501Z,4
2018-05-25T16:38:55.236Z,4
2018-05-25T16:40:04.674Z,0
2018-05-25T16:41:13.841Z,4
2018-05-25T16:42:23.001Z,4
2018-05-25T16:43:32.682Z,4
2018-05-25T16:44:42.358Z,4
2018-05-25T16:45:51.522Z,4
2018-05-25T16:47:00.999Z,4
2018-05-25T16:48:10.984Z,4
2018-05-25T16:49:20.656Z,4
2018-05-25T16:50:30.340Z,4